Time,TemperatureF,DewpointF,PressureIn,WindDirection,WindDirectionDegrees,WindSpeedMPH,WindSpeedGustMPH,Humidity,HourlyPrecipIn,Conditions,Clouds,dailyrainin,SoftwareType,DateUTC
2013-08-03 00:00:00,70.5,68.7,30.00,WNW,291,0.0,0.0,94,0.00,,,0.00,Wunderground v.1.15,2013-08-03 05:00:00,
2013-08-03 00:05:00,70.4,68.6,30.00,WNW,293,0.0,0.0,94,0.00,,,0.00,Wunderground v.1.15,2013-08-03 05:05:00,
2013-08-03 00:10:00,70.3,68.5,30.00,NNE,27,0.0,0.0,94,0.00,,,0.00,Wunderground v.1.15,2013-08-03 05:10:00,
2013-08-03 00:14:00,70.1,68.3,30.00,North,350,0.0,0.0,94,0.00,,,0.00,Wunderground v.1.15,2013-08-03 05:14:00,
2013-08-03 00:20:00,70.1,68.3,30.00,NW,323,0.0,0.0,94,0.00,,,0.00,Wunderground v.1.15,2013-08-03 05:20:00,
2013-08-03 00:25:00,69.9,68.1,30.00,West,260,0.0,0.0,94,0.00,,,0.00,Wunderground v.1.15,2013-08-03 05:25:00,
2013-08-03 00:30:00,69.9,68.1,30.00,NNE,20,0.0,0.0,94,0.00,,,0.00,Wunderground v.1.15,2013-08-03 05:30:00,
2013-08-03 00:35:00,69.7,67.9,30.00,NW,318,0.0,0.0,94,0.00,,,0.00,Wunderground v.1.15,2013-08-03 05:35:00,
2013-08-03 00:40:00,69.7,67.9,30.00,WNW,302,0.0,0.0,94,0.00,,,0.00,Wunderground v.1.15,2013-08-03 05:40:00,
2013-08-03 00:45:00,69.5,67.7,30.00,NNE,12,0.0,0.0,94,0.00,,,0.00,Wunderground v.1.15,2013-08-03 05:45:00,
2013-08-03 00:55:00,69.1,67.0,30.00,WNW,297,0.0,0.0,93,0.00,,,0.00,Wunderground v.1.15,2013-08-03 05:55:00,
2013-08-03 01:00:00,68.9,66.8,30.00,NNW,333,0.0,0.0,93,0.00,,,0.00,Wunderground v.1.15,2013-08-03 06:00:00,
2013-08-03 01:05:00,68.8,66.7,30.01,North,1,0.0,0.0,93,0.00,,,0.00,Wunderground v.1.15,2013-08-03 06:05:00,
2013-08-03 01:10:00,68.7,66.6,30.01,NNW,343,0.0,0.0,93,0.00,,,0.00,Wunderground v.1.15,2013-08-03 06:10:00,
2013-08-03 01:15:00,68.6,66.5,30.01,NNE,15,0.0,0.0,93,0.00,,,0.00,Wunderground v.1.15,2013-08-03 06:15:00,
2013-08-03 01:20:00,68.6,66.5,30.01,NNE,21,1.0,1.0,93,0.00,,,0.00,Wunderground v.1.15,2013-08-03 06:20:00,
2013-08-03 01:30:00,68.5,66.4,30.01,NW,323,0.0,0.0,93,0.00,,,0.00,Wunderground v.1.15,2013-08-03 06:30:00,
2013-08-03 01:40:00,68.4,66.3,30.00,North,360,0.0,0.0,93,0.00,,,0.00,Wunderground v.1.15,2013-08-03 06:40:00,
2013-08-03 01:45:00,68.2,66.1,30.00,North,9,0.0,0.0,93,0.00,,,0.00,Wunderground v.1.15,2013-08-03 06:45:00,
2013-08-03 01:50:00,68.3,66.2,30.00,North,6,0.0,0.0,93,0.00,,,0.00,Wunderground v.1.15,2013-08-03 06:50:00,
2013-08-03 01:54:00,68.2,66.4,30.01,NW,317,0.0,0.0,94,0.00,,,0.00,Wunderground v.1.15,2013-08-03 06:54:00,
2013-08-03 02:00:00,68.2,66.1,30.01,NW,316,0.0,0.0,93,0.00,,,0.00,Wunderground v.1.15,2013-08-03 07:00:00,
2013-08-03 02:05:00,68.1,66.3,30.00,NW,322,0.0,0.0,94,0.00,,,0.00,Wunderground v.1.15,2013-08-03 07:05:00,
2013-08-03 02:10:00,68.0,66.2,30.01,NW,321,0.0,0.0,94,0.00,,,0.00,Wunderground v.1.15,2013-08-03 07:10:00,
2013-08-03 02:15:00,67.9,66.1,30.01,NW,320,0.0,0.0,94,0.00,,,0.00,Wunderground v.1.15,2013-08-03 07:15:00,
2013-08-03 02:20:00,67.9,66.1,30.01,NW,310,0.0,1.0,94,0.00,,,0.00,Wunderground v.1.15,2013-08-03 07:20:00,
2013-08-03 02:25:00,67.8,66.0,30.01,WNW,303,0.0,1.0,94,0.00,,,0.00,Wunderground v.1.15,2013-08-03 07:25:00,
2013-08-03 02:30:00,67.8,66.0,30.01,NW,307,0.0,0.0,94,0.00,,,0.00,Wunderground v.1.15,2013-08-03 07:30:00,
2013-08-03 02:40:00,67.8,66.0,30.01,WNW,294,1.0,1.0,94,0.00,,,0.00,Wunderground v.1.15,2013-08-03 07:40:00,
2013-08-03 02:45:00,67.7,65.9,30.01,NNW,330,1.0,1.0,94,0.00,,,0.00,Wunderground v.1.15,2013-08-03 07:45:00,
2013-08-03 02:50:00,67.7,65.9,30.01,NNE,15,1.0,1.0,94,0.00,,,0.00,Wunderground v.1.15,2013-08-03 07:50:00,
2013-08-03 03:00:00,67.6,65.8,30.01,NNE,15,1.0,1.0,94,0.00,,,0.00,Wunderground v.1.15,2013-08-03 08:00:00,
2013-08-03 03:04:00,67.5,65.7,30.01,NW,306,0.0,1.0,94,0.00,,,0.00,Wunderground v.1.15,2013-08-03 08:04:00,
2013-08-03 03:10:00,67.5,65.7,30.01,NW,323,0.0,0.0,94,0.00,,,0.00,Wunderground v.1.15,2013-08-03 08:10:00,
2013-08-03 03:15:00,67.5,65.7,30.01,WNW,297,0.0,2.0,94,0.00,,,0.00,Wunderground v.1.15,2013-08-03 08:15:00,
2013-08-03 03:20:00,67.4,65.6,30.01,NNE,20,0.0,1.0,94,0.00,,,0.00,Wunderground v.1.15,2013-08-03 08:20:00,
2013-08-03 03:25:00,67.4,65.6,30.00,NNE,12,0.0,1.0,94,0.00,,,0.00,Wunderground v.1.15,2013-08-03 08:25:00,
2013-08-03 03:30:00,67.3,65.2,30.00,North,359,0.0,0.0,93,0.00,,,0.00,Wunderground v.1.15,2013-08-03 08:30:00,
2013-08-03 03:35:00,67.3,65.2,30.00,North,356,0.0,0.0,93,0.00,,,0.00,Wunderground v.1.15,2013-08-03 08:35:00,
2013-08-03 03:40:00,67.3,65.2,30.00,NNE,13,0.0,1.0,93,0.00,,,0.00,Wunderground v.1.15,2013-08-03 08:40:00,
2013-08-03 03:45:00,67.3,65.2,30.00,NNE,30,1.0,1.0,93,0.00,,,0.00,Wunderground v.1.15,2013-08-03 08:45:00,
2013-08-03 03:50:00,67.4,65.3,30.00,North,5,1.0,1.0,93,0.00,,,0.00,Wunderground v.1.15,2013-08-03 08:50:00,
2013-08-03 04:00:00,67.3,65.2,30.00,NNW,340,1.0,1.0,93,0.00,,,0.00,Wunderground v.1.15,2013-08-03 09:00:00,
2013-08-03 04:05:00,67.2,65.1,30.00,NNE,13,1.0,1.0,93,0.00,,,0.00,Wunderground v.1.15,2013-08-03 09:05:00,
2013-08-03 04:10:00,67.2,64.8,30.00,NNW,346,1.0,1.0,92,0.00,,,0.00,Wunderground v.1.15,2013-08-03 09:10:00,
2013-08-03 04:15:00,67.2,64.8,29.99,North,11,2.0,2.0,92,0.00,,,0.00,Wunderground v.1.15,2013-08-03 09:15:00,
2013-08-03 04:20:00,67.1,64.7,30.00,NNW,348,2.0,2.0,92,0.00,,,0.00,Wunderground v.1.15,2013-08-03 09:20:00,
2013-08-03 04:25:00,67.1,64.7,29.99,NNE,21,3.0,4.0,92,0.00,,,0.00,Wunderground v.1.15,2013-08-03 09:25:00,
2013-08-03 04:35:00,66.9,64.5,29.99,NNE,16,3.0,4.0,92,0.00,,,0.00,Wunderground v.1.15,2013-08-03 09:35:00,
2013-08-03 04:40:00,66.8,64.4,30.00,North,8,2.0,2.0,92,0.00,,,0.00,Wunderground v.1.15,2013-08-03 09:40:00,
2013-08-03 04:45:00,66.6,64.2,30.00,North,11,2.0,2.0,92,0.00,,,0.00,Wunderground v.1.15,2013-08-03 09:45:00,
2013-08-03 04:50:00,66.6,64.2,30.00,North,4,2.0,4.0,92,0.00,,,0.00,Wunderground v.1.15,2013-08-03 09:50:00,
2013-08-03 04:55:00,66.5,64.1,30.00,NNE,17,3.0,4.0,92,0.00,,,0.00,Wunderground v.1.15,2013-08-03 09:55:00,
2013-08-03 05:00:00,66.4,64.3,30.00,NNE,22,3.0,4.0,93,0.00,,,0.00,Wunderground v.1.15,2013-08-03 10:00:00,
2013-08-03 05:04:00,66.4,64.3,30.00,NNE,30,3.0,4.0,93,0.00,,,0.00,Wunderground v.1.15,2013-08-03 10:04:00,
2013-08-03 05:10:00,66.3,64.2,29.99,NNE,20,3.0,4.0,93,0.00,,,0.00,Wunderground v.1.15,2013-08-03 10:10:00,
2013-08-03 05:15:00,66.2,64.1,29.99,NNE,19,3.0,4.0,93,0.00,,,0.00,Wunderground v.1.15,2013-08-03 10:15:00,
2013-08-03 05:20:00,66.1,64.0,29.99,NNE,23,3.0,4.0,93,0.00,,,0.00,Wunderground v.1.15,2013-08-03 10:20:00,
2013-08-03 05:25:00,66.0,63.9,29.99,NNE,19,4.0,5.0,93,0.00,,,0.00,Wunderground v.1.15,2013-08-03 10:25:00,
2013-08-03 05:30:00,65.9,64.1,29.99,NNE,20,4.0,5.0,94,0.00,,,0.00,Wunderground v.1.15,2013-08-03 10:30:00,
2013-08-03 05:35:00,65.9,64.1,29.99,NNE,20,4.0,5.0,94,0.00,,,0.00,Wunderground v.1.15,2013-08-03 10:35:00,
2013-08-03 05:40:00,65.8,64.0,30.00,NNE,19,4.0,4.0,94,0.00,,,0.00,Wunderground v.1.15,2013-08-03 10:40:00,
2013-08-03 05:45:00,65.7,63.9,30.00,NNE,19,4.0,5.0,94,0.00,,,0.00,Wunderground v.1.15,2013-08-03 10:45:00,
2013-08-03 05:50:00,65.6,63.5,30.00,NNE,22,4.0,4.0,93,0.00,,,0.00,Wunderground v.1.15,2013-08-03 10:50:00,
2013-08-03 05:55:00,65.6,63.5,30.00,NNE,21,4.0,4.0,93,0.00,,,0.00,Wunderground v.1.15,2013-08-03 10:55:00,
2013-08-03 06:00:00,65.5,63.4,30.01,NNE,19,3.0,3.0,93,0.00,,,0.00,Wunderground v.1.15,2013-08-03 11:00:00,
2013-08-03 06:05:00,65.5,63.4,30.01,NNE,15,2.0,3.0,93,0.00,,,0.00,Wunderground v.1.15,2013-08-03 11:05:00,
2013-08-03 06:10:00,65.5,63.4,30.01,NNE,20,2.0,2.0,93,0.00,,,0.00,Wunderground v.1.15,2013-08-03 11:10:00,
2013-08-03 06:15:00,65.6,63.5,30.02,NNE,21,2.0,2.0,93,0.00,,,0.00,Wunderground v.1.15,2013-08-03 11:15:00,
2013-08-03 06:20:00,65.8,63.4,30.02,NNE,19,1.0,1.0,92,0.00,,,0.00,Wunderground v.1.15,2013-08-03 11:20:00,
2013-08-03 06:25:00,65.7,63.3,30.02,NE,41,1.0,1.0,92,0.00,,,0.00,Wunderground v.1.15,2013-08-03 11:25:00,
2013-08-03 06:30:00,65.7,63.3,30.02,WNW,297,1.0,1.0,92,0.00,,,0.00,Wunderground v.1.15,2013-08-03 11:30:00,
2013-08-03 06:35:00,65.6,63.2,30.03,North,356,1.0,1.0,92,0.00,,,0.00,Wunderground v.1.15,2013-08-03 11:35:00,
2013-08-03 06:40:00,65.9,63.5,30.03,NNW,346,1.0,1.0,92,0.00,,,0.00,Wunderground v.1.15,2013-08-03 11:40:00,
2013-08-03 06:45:00,66.0,63.6,30.03,NE,52,0.0,1.0,92,0.00,,,0.00,Wunderground v.1.15,2013-08-03 11:45:00,
2013-08-03 06:50:00,66.4,63.7,30.03,NNE,20,1.0,3.0,91,0.00,,,0.00,Wunderground v.1.15,2013-08-03 11:50:00,
2013-08-03 06:55:00,66.9,64.2,30.03,NNE,18,2.0,3.0,91,0.00,,,0.00,Wunderground v.1.15,2013-08-03 11:55:00,
2013-08-03 07:00:00,67.2,63.8,30.03,North,354,2.0,2.0,89,0.00,,,0.00,Wunderground v.1.15,2013-08-03 12:00:00,
2013-08-03 07:05:00,67.2,63.5,30.04,NNE,19,2.0,2.0,88,0.00,,,0.00,Wunderground v.1.15,2013-08-03 12:05:00,
2013-08-03 07:10:00,67.3,63.0,30.04,NNE,18,3.0,3.0,86,0.00,,,0.00,Wunderground v.1.15,2013-08-03 12:10:00,
2013-08-03 07:20:00,67.5,63.2,30.05,NNE,23,2.0,5.0,86,0.00,,,0.00,Wunderground v.1.15,2013-08-03 12:20:00,
2013-08-03 07:25:00,67.5,62.8,30.05,NNE,15,3.0,5.0,85,0.00,,,0.00,Wunderground v.1.15,2013-08-03 12:25:00,
2013-08-03 07:30:00,67.6,62.9,30.05,NNE,21,2.0,3.0,85,0.00,,,0.00,Wunderground v.1.15,2013-08-03 12:30:00,
2013-08-03 07:35:00,67.6,62.9,30.05,NNE,20,2.0,4.0,85,0.00,,,0.00,Wunderground v.1.15,2013-08-03 12:35:00,
2013-08-03 07:40:00,67.8,63.1,30.06,NNE,27,3.0,4.0,85,0.00,,,0.00,Wunderground v.1.15,2013-08-03 12:40:00,
2013-08-03 07:45:00,67.8,62.8,30.06,NE,35,3.0,4.0,84,0.00,,,0.00,Wunderground v.1.15,2013-08-03 12:45:00,
2013-08-03 07:50:00,67.9,62.9,30.06,NNE,19,4.0,4.0,84,0.00,,,0.00,Wunderground v.1.15,2013-08-03 12:50:00,
2013-08-03 07:55:00,68.0,63.0,30.05,NNE,13,4.0,4.0,84,0.00,,,0.00,Wunderground v.1.15,2013-08-03 12:55:00,
2013-08-03 08:00:00,68.1,62.7,30.05,NNE,15,4.0,4.0,83,0.00,,,0.00,Wunderground v.1.15,2013-08-03 13:00:00,
2013-08-03 08:05:00,68.3,63.3,30.05,NNE,20,4.0,4.0,84,0.00,,,0.00,Wunderground v.1.15,2013-08-03 13:05:00,
2013-08-03 08:09:00,68.4,62.7,30.05,NNE,21,4.0,4.0,82,0.00,,,0.00,Wunderground v.1.15,2013-08-03 13:09:00,
2013-08-03 08:14:00,68.4,62.7,30.05,NNE,30,5.0,5.0,82,0.00,,,0.00,Wunderground v.1.15,2013-08-03 13:14:00,
2013-08-03 08:20:00,68.4,62.7,30.06,NE,43,5.0,5.0,82,0.00,,,0.00,Wunderground v.1.15,2013-08-03 13:20:00,
2013-08-03 08:24:00,68.6,62.9,30.06,NNE,12,5.0,5.0,82,0.00,,,0.00,Wunderground v.1.15,2013-08-03 13:24:00,
2013-08-03 08:30:00,68.8,63.1,30.06,NNE,15,4.0,4.0,82,0.00,,,0.00,Wunderground v.1.15,2013-08-03 13:30:00,
2013-08-03 08:35:00,68.9,62.1,30.07,NNE,23,5.0,7.0,79,0.00,,,0.00,Wunderground v.1.15,2013-08-03 13:35:00,
2013-08-03 08:40:00,68.9,62.5,30.07,NNE,27,5.0,5.0,80,0.00,,,0.00,Wunderground v.1.15,2013-08-03 13:40:00,
2013-08-03 08:45:00,69.0,62.9,30.07,NNE,27,5.0,5.0,81,0.00,,,0.00,Wunderground v.1.15,2013-08-03 13:45:00,
2013-08-03 08:50:00,69.2,62.4,30.06,NNE,21,5.0,5.0,79,0.00,,,0.00,Wunderground v.1.15,2013-08-03 13:50:00,
2013-08-03 08:54:00,69.4,63.3,30.06,NNE,22,5.0,5.0,81,0.00,,,0.00,Wunderground v.1.15,2013-08-03 13:54:00,
2013-08-03 09:00:00,69.7,62.5,30.06,NE,39,5.0,5.0,78,0.00,,,0.00,Wunderground v.1.15,2013-08-03 14:00:00,
2013-08-03 09:05:00,70.0,62.5,30.06,NE,35,4.0,5.0,77,0.00,,,0.00,Wunderground v.1.15,2013-08-03 14:05:00,
2013-08-03 09:10:00,70.0,62.8,30.06,NNE,12,5.0,9.0,78,0.00,,,0.00,Wunderground v.1.15,2013-08-03 14:10:00,
2013-08-03 09:15:00,70.1,62.9,30.06,SSE,167,5.0,9.0,78,0.00,,,0.00,Wunderground v.1.15,2013-08-03 14:15:00,
2013-08-03 09:20:00,70.4,63.2,30.06,NNE,23,5.0,6.0,78,0.00,,,0.00,Wunderground v.1.15,2013-08-03 14:20:00,
2013-08-03 09:25:00,70.4,62.5,30.06,NNE,30,5.0,6.0,76,0.00,,,0.00,Wunderground v.1.15,2013-08-03 14:25:00,
2013-08-03 09:30:00,70.6,63.4,30.06,WNW,293,5.0,5.0,78,0.00,,,0.00,Wunderground v.1.15,2013-08-03 14:30:00,
2013-08-03 09:35:00,70.9,63.3,30.06,NW,318,4.0,5.0,77,0.00,,,0.00,Wunderground v.1.15,2013-08-03 14:35:00,
2013-08-03 09:40:00,71.1,62.8,30.07,NNE,20,3.0,5.0,75,0.00,,,0.00,Wunderground v.1.15,2013-08-03 14:40:00,
2013-08-03 09:45:00,71.4,63.4,30.07,NNE,16,4.0,8.0,76,0.00,,,0.00,Wunderground v.1.15,2013-08-03 14:45:00,
2013-08-03 09:50:00,71.3,63.7,30.07,NNE,25,4.0,4.0,77,0.00,,,0.00,Wunderground v.1.15,2013-08-03 14:50:00,
2013-08-03 09:55:00,71.6,63.6,30.07,NNE,33,4.0,4.0,76,0.00,,,0.00,Wunderground v.1.15,2013-08-03 14:55:00,
2013-08-03 10:00:00,71.9,63.5,30.07,NNE,15,3.0,4.0,75,0.00,,,0.00,Wunderground v.1.15,2013-08-03 15:00:00,
2013-08-03 10:05:00,72.3,63.9,30.07,North,11,3.0,4.0,75,0.00,,,0.00,Wunderground v.1.15,2013-08-03 15:05:00,
2013-08-03 10:10:00,72.5,63.7,30.07,North,354,3.0,3.0,74,0.00,,,0.00,Wunderground v.1.15,2013-08-03 15:10:00,
2013-08-03 10:15:00,72.9,64.1,30.07,North,5,3.0,3.0,74,0.00,,,0.00,Wunderground v.1.15,2013-08-03 15:15:00,
2013-08-03 10:20:00,73.2,63.2,30.07,NNE,22,2.0,4.0,71,0.00,,,0.00,Wunderground v.1.15,2013-08-03 15:20:00,
2013-08-03 10:25:00,73.5,64.3,30.07,NE,42,3.0,4.0,73,0.00,,,0.00,Wunderground v.1.15,2013-08-03 15:25:00,
2013-08-03 10:30:00,73.7,64.9,30.07,NNE,18,4.0,4.0,74,0.00,,,0.00,Wunderground v.1.15,2013-08-03 15:30:00,
2013-08-03 10:35:00,74.0,64.0,30.08,NE,43,3.0,5.0,71,0.00,,,0.00,Wunderground v.1.15,2013-08-03 15:35:00,
2013-08-03 10:40:00,74.2,64.2,30.08,ENE,60,3.0,5.0,71,0.00,,,0.00,Wunderground v.1.15,2013-08-03 15:40:00,
2013-08-03 10:45:00,74.4,63.6,30.08,NE,34,3.0,5.0,69,0.00,,,0.00,Wunderground v.1.15,2013-08-03 15:45:00,
2013-08-03 10:50:00,74.7,63.9,30.09,NW,312,2.0,2.0,69,0.00,,,0.00,Wunderground v.1.15,2013-08-03 15:50:00,
2013-08-03 10:55:00,75.1,63.0,30.09,NW,307,2.0,2.0,66,0.00,,,0.00,Wunderground v.1.15,2013-08-03 15:55:00,
2013-08-03 11:00:00,75.5,63.3,30.09,NNE,30,3.0,3.0,66,0.00,,,0.00,Wunderground v.1.15,2013-08-03 16:00:00,
2013-08-03 11:05:00,75.3,62.7,30.09,North,360,3.0,3.0,65,0.00,,,0.00,Wunderground v.1.15,2013-08-03 16:05:00,
2013-08-03 11:10:00,75.7,62.7,30.09,NNE,19,2.0,3.0,64,0.00,,,0.00,Wunderground v.1.15,2013-08-03 16:10:00,
2013-08-03 11:15:00,76.0,62.5,30.09,NNW,343,2.0,3.0,63,0.00,,,0.00,Wunderground v.1.15,2013-08-03 16:15:00,
2013-08-03 11:19:00,76.1,61.7,30.09,NNW,340,3.0,3.0,61,0.00,,,0.00,Wunderground v.1.15,2013-08-03 16:19:00,
2013-08-03 11:24:00,76.3,62.8,30.09,NNE,27,2.0,3.0,63,0.00,,,0.00,Wunderground v.1.15,2013-08-03 16:24:00,
2013-08-03 11:30:00,76.5,61.6,30.09,NNE,21,2.0,2.0,60,0.00,,,0.00,Wunderground v.1.15,2013-08-03 16:30:00,
2013-08-03 11:35:00,76.8,60.9,30.09,West,265,3.0,4.0,58,0.00,,,0.00,Wunderground v.1.15,2013-08-03 16:35:00,
2013-08-03 11:40:00,76.9,61.0,30.09,NNE,25,3.0,3.0,58,0.00,,,0.00,Wunderground v.1.15,2013-08-03 16:40:00,
2013-08-03 11:44:00,77.0,60.6,30.09,NNW,340,3.0,3.0,57,0.00,,,0.00,Wunderground v.1.15,2013-08-03 16:44:00,
2013-08-03 11:50:00,77.2,59.3,30.09,ENE,67,2.0,2.0,54,0.00,,,0.00,Wunderground v.1.15,2013-08-03 16:50:00,
2013-08-03 11:55:00,77.5,61.1,30.09,WSW,251,1.0,2.0,57,0.00,,,0.00,Wunderground v.1.15,2013-08-03 16:55:00,
2013-08-03 12:05:00,77.9,61.9,30.09,WNW,298,1.0,2.0,58,0.00,,,0.00,Wunderground v.1.15,2013-08-03 17:05:00,
2013-08-03 12:09:00,77.9,60.9,30.09,NW,322,2.0,3.0,56,0.00,,,0.00,Wunderground v.1.15,2013-08-03 17:09:00,
2013-08-03 12:14:00,78.0,58.9,30.10,North,11,2.0,3.0,52,0.00,,,0.00,Wunderground v.1.15,2013-08-03 17:14:00,
2013-08-03 12:19:00,78.1,60.1,30.09,NW,307,2.0,2.0,54,0.00,,,0.00,Wunderground v.1.15,2013-08-03 17:19:00,
2013-08-03 12:25:00,78.1,60.6,30.09,NE,36,2.0,3.0,55,0.00,,,0.00,Wunderground v.1.15,2013-08-03 17:25:00,
2013-08-03 12:30:00,78.5,60.5,30.09,North,354,2.0,2.0,54,0.00,,,0.00,Wunderground v.1.15,2013-08-03 17:30:00,
2013-08-03 12:35:00,78.9,61.9,30.09,NNE,15,1.0,3.0,56,0.00,,,0.00,Wunderground v.1.15,2013-08-03 17:35:00,
2013-08-03 12:40:00,78.8,61.3,30.09,NNE,23,2.0,3.0,55,0.00,,,0.00,Wunderground v.1.15,2013-08-03 17:40:00,
2013-08-03 12:45:00,78.7,60.7,30.10,WNW,300,3.0,3.0,54,0.00,,,0.00,Wunderground v.1.15,2013-08-03 17:45:00,
2013-08-03 12:50:00,78.9,60.8,30.10,NNE,27,2.0,2.0,54,0.00,,,0.00,Wunderground v.1.15,2013-08-03 17:50:00,
2013-08-03 12:55:00,79.2,63.1,30.10,NW,320,1.0,2.0,58,0.00,,,0.00,Wunderground v.1.15,2013-08-03 17:55:00,
2013-08-03 13:00:00,79.3,61.7,30.10,NNE,13,2.0,2.0,55,0.00,,,0.00,Wunderground v.1.15,2013-08-03 18:00:00,
2013-08-03 13:05:00,79.3,60.7,30.10,WNW,300,2.0,2.0,53,0.00,,,0.00,Wunderground v.1.15,2013-08-03 18:05:00,
2013-08-03 13:10:00,79.7,61.6,30.10,WNW,297,2.0,4.0,54,0.00,,,0.00,Wunderground v.1.15,2013-08-03 18:10:00,
2013-08-03 13:15:00,79.8,61.1,30.10,WNW,291,2.0,4.0,53,0.00,,,0.00,Wunderground v.1.15,2013-08-03 18:15:00,
2013-08-03 13:20:00,79.9,61.8,30.09,WNW,297,2.0,5.0,54,0.00,,,0.00,Wunderground v.1.15,2013-08-03 18:20:00,
2013-08-03 13:25:00,79.7,61.6,30.09,North,9,2.0,5.0,54,0.00,,,0.00,Wunderground v.1.15,2013-08-03 18:25:00,
2013-08-03 13:30:00,79.9,60.7,30.10,NNE,22,3.0,3.0,52,0.00,,,0.00,Wunderground v.1.15,2013-08-03 18:30:00,
2013-08-03 13:35:00,79.8,60.1,30.10,NNE,20,3.0,4.0,51,0.00,,,0.00,Wunderground v.1.15,2013-08-03 18:35:00,
2013-08-03 13:40:00,79.4,61.3,30.09,NNE,17,3.0,4.0,54,0.00,,,0.00,Wunderground v.1.15,2013-08-03 18:40:00,
2013-08-03 13:45:00,79.3,62.2,30.10,NW,307,3.0,4.0,56,0.00,,,0.00,Wunderground v.1.15,2013-08-03 18:45:00,
2013-08-03 13:50:00,79.2,61.1,30.09,WNW,297,3.0,3.0,54,0.00,,,0.00,Wunderground v.1.15,2013-08-03 18:50:00,
2013-08-03 13:55:00,79.2,61.6,30.09,NNE,27,3.0,3.0,55,0.00,,,0.00,Wunderground v.1.15,2013-08-03 18:55:00,
2013-08-03 14:00:00,79.5,62.4,30.09,NNE,33,2.0,2.0,56,0.00,,,0.00,Wunderground v.1.15,2013-08-03 19:00:00,
2013-08-03 14:10:00,79.6,62.0,30.09,NNW,342,3.0,3.0,55,0.00,,,0.00,Wunderground v.1.15,2013-08-03 19:10:00,
2013-08-03 14:15:00,79.6,61.5,30.09,NW,321,3.0,3.0,54,0.00,,,0.00,Wunderground v.1.15,2013-08-03 19:15:00,
2013-08-03 14:20:00,80.0,61.9,30.10,NNE,30,2.0,2.0,54,0.00,,,0.00,Wunderground v.1.15,2013-08-03 19:20:00,
2013-08-03 14:25:00,80.1,62.0,30.10,WNW,298,2.0,3.0,54,0.00,,,0.00,Wunderground v.1.15,2013-08-03 19:25:00,
2013-08-03 14:30:00,79.7,61.6,30.10,North,1,3.0,3.0,54,0.00,,,0.00,Wunderground v.1.15,2013-08-03 19:30:00,
2013-08-03 14:35:00,79.7,61.6,30.10,NNE,20,3.0,3.0,54,0.00,,,0.00,Wunderground v.1.15,2013-08-03 19:35:00,
2013-08-03 14:40:00,79.9,61.2,30.10,NE,41,3.0,3.0,53,0.00,,,0.00,Wunderground v.1.15,2013-08-03 19:40:00,
2013-08-03 14:45:00,79.7,62.1,30.10,WNW,288,3.0,3.0,55,0.00,,,0.00,Wunderground v.1.15,2013-08-03 19:45:00,
2013-08-03 14:50:00,79.4,61.3,30.10,NNE,15,3.0,5.0,54,0.00,,,0.00,Wunderground v.1.15,2013-08-03 19:50:00,
2013-08-03 14:55:00,79.4,60.8,30.10,North,6,3.0,5.0,53,0.00,,,0.00,Wunderground v.1.15,2013-08-03 19:55:00,
2013-08-03 15:00:00,79.6,61.5,30.10,North,6,3.0,3.0,54,0.00,,,0.00,Wunderground v.1.15,2013-08-03 20:00:00,
2013-08-03 15:05:00,79.3,61.2,30.10,NNW,342,3.0,3.0,54,0.00,,,0.00,Wunderground v.1.15,2013-08-03 20:05:00,
2013-08-03 15:15:00,80.4,61.2,30.09,NW,318,2.0,4.0,52,0.00,,,0.00,Wunderground v.1.15,2013-08-03 20:15:00,
2013-08-03 15:20:00,80.2,60.4,30.09,WSW,250,3.0,4.0,51,0.00,,,0.00,Wunderground v.1.15,2013-08-03 20:20:00,
2013-08-03 15:25:00,80.3,62.1,30.10,NNE,21,3.0,4.0,54,0.00,,,0.00,Wunderground v.1.15,2013-08-03 20:25:00,
2013-08-03 15:30:00,80.2,61.5,30.09,NW,318,3.0,3.0,53,0.00,,,0.00,Wunderground v.1.15,2013-08-03 20:30:00,
2013-08-03 15:35:00,80.3,61.6,30.09,WNW,284,2.0,4.0,53,0.00,,,0.00,Wunderground v.1.15,2013-08-03 20:35:00,
2013-08-03 15:40:00,80.4,60.1,30.09,NNW,340,3.0,3.0,50,0.00,,,0.00,Wunderground v.1.15,2013-08-03 20:40:00,
2013-08-03 15:45:00,80.6,60.2,30.09,North,352,3.0,3.0,50,0.00,,,0.00,Wunderground v.1.15,2013-08-03 20:45:00,
2013-08-03 15:50:00,80.4,58.9,30.09,WNW,298,3.0,4.0,48,0.00,,,0.00,Wunderground v.1.15,2013-08-03 20:50:00,
2013-08-03 15:55:00,80.8,60.4,30.08,ENE,58,3.0,4.0,50,0.00,,,0.00,Wunderground v.1.15,2013-08-03 20:55:00,
2013-08-03 16:00:00,80.7,60.9,30.09,NE,49,3.0,3.0,51,0.00,,,0.00,Wunderground v.1.15,2013-08-03 21:00:00,
2013-08-03 16:05:00,80.3,60.0,30.09,NNE,22,4.0,4.0,50,0.00,,,0.00,Wunderground v.1.15,2013-08-03 21:05:00,
2013-08-03 16:10:00,80.2,61.0,30.09,NW,308,3.0,3.0,52,0.00,,,0.00,Wunderground v.1.15,2013-08-03 21:10:00,
2013-08-03 16:15:00,80.3,60.0,30.09,WNW,283,3.0,3.0,50,0.00,,,0.00,Wunderground v.1.15,2013-08-03 21:15:00,
2013-08-03 16:20:00,80.4,60.6,30.09,NNE,19,3.0,3.0,51,0.00,,,0.00,Wunderground v.1.15,2013-08-03 21:20:00,
2013-08-03 16:25:00,80.2,59.9,30.09,NNE,27,3.0,3.0,50,0.00,,,0.00,Wunderground v.1.15,2013-08-03 21:25:00,
2013-08-03 16:30:00,80.1,59.8,30.09,North,356,4.0,5.0,50,0.00,,,0.00,Wunderground v.1.15,2013-08-03 21:30:00,
2013-08-03 16:35:00,80.1,60.9,30.08,NW,326,3.0,5.0,52,0.00,,,0.00,Wunderground v.1.15,2013-08-03 21:35:00,
2013-08-03 16:40:00,80.5,61.3,30.08,WSW,243,3.0,3.0,52,0.00,,,0.00,Wunderground v.1.15,2013-08-03 21:40:00,
2013-08-03 16:45:00,80.6,60.2,30.09,WNW,286,2.0,3.0,50,0.00,,,0.00,Wunderground v.1.15,2013-08-03 21:45:00,
2013-08-03 16:50:00,80.7,60.3,30.09,NNE,25,2.0,2.0,50,0.00,,,0.00,Wunderground v.1.15,2013-08-03 21:50:00,
2013-08-03 16:55:00,80.6,60.8,30.09,ENE,67,3.0,4.0,51,0.00,,,0.00,Wunderground v.1.15,2013-08-03 21:55:00,
2013-08-03 17:00:00,80.1,59.8,30.09,NNE,19,4.0,7.0,50,0.00,,,0.00,Wunderground v.1.15,2013-08-03 22:00:00,
2013-08-03 17:05:00,79.3,59.0,30.09,NNE,25,5.0,7.0,50,0.00,,,0.00,Wunderground v.1.15,2013-08-03 22:05:00,
2013-08-03 17:10:00,79.1,59.4,30.09,NE,39,5.0,5.0,51,0.00,,,0.00,Wunderground v.1.15,2013-08-03 22:10:00,
2013-08-03 17:15:00,79.0,61.5,30.09,NE,43,5.0,5.0,55,0.00,,,0.00,Wunderground v.1.15,2013-08-03 22:15:00,
2013-08-03 17:20:00,78.9,59.8,30.10,NNW,328,4.0,4.0,52,0.00,,,0.00,Wunderground v.1.15,2013-08-03 22:20:00,
2013-08-03 17:25:00,78.6,59.0,30.10,North,5,3.0,4.0,51,0.00,,,0.00,Wunderground v.1.15,2013-08-03 22:25:00,
2013-08-03 17:30:00,78.8,59.7,30.10,WNW,299,3.0,5.0,52,0.00,,,0.00,Wunderground v.1.15,2013-08-03 22:30:00,
2013-08-03 17:35:00,79.1,59.4,30.10,NNE,18,3.0,5.0,51,0.00,,,0.00,Wunderground v.1.15,2013-08-03 22:35:00,
2013-08-03 17:40:00,79.0,59.9,30.10,WNW,284,3.0,3.0,52,0.00,,,0.00,Wunderground v.1.15,2013-08-03 22:40:00,
2013-08-03 17:45:00,79.0,60.4,30.10,NNE,15,4.0,4.0,53,0.00,,,0.00,Wunderground v.1.15,2013-08-03 22:45:00,
2013-08-03 17:50:00,78.6,60.0,30.10,NNE,19,4.0,4.0,53,0.00,,,0.00,Wunderground v.1.15,2013-08-03 22:50:00,
2013-08-03 17:55:00,78.3,60.3,30.10,North,7,3.0,4.0,54,0.00,,,0.00,Wunderground v.1.15,2013-08-03 22:55:00,
2013-08-03 18:00:00,77.9,60.4,30.10,NNE,21,2.0,2.0,55,0.00,,,0.00,Wunderground v.1.15,2013-08-03 23:00:00,
2013-08-03 18:05:00,77.9,60.4,30.10,NNE,32,2.0,2.0,55,0.00,,,0.00,Wunderground v.1.15,2013-08-03 23:05:00,
2013-08-03 18:10:00,78.4,61.4,30.11,NE,49,1.0,1.0,56,0.00,,,0.00,Wunderground v.1.15,2013-08-03 23:10:00,
2013-08-03 18:15:00,78.6,60.6,30.10,NNE,25,2.0,2.0,54,0.00,,,0.00,Wunderground v.1.15,2013-08-03 23:15:00,
2013-08-03 18:20:00,78.6,61.1,30.10,WNW,302,2.0,2.0,55,0.00,,,0.00,Wunderground v.1.15,2013-08-03 23:20:00,
2013-08-03 18:30:00,78.4,60.9,30.10,NNE,19,2.0,2.0,55,0.00,,,0.00,Wunderground v.1.15,2013-08-03 23:30:00,
2013-08-03 18:35:00,78.4,60.9,30.10,NNE,32,2.0,3.0,55,0.00,,,0.00,Wunderground v.1.15,2013-08-03 23:35:00,
2013-08-03 18:40:00,78.2,60.7,30.10,NNE,22,3.0,4.0,55,0.00,,,0.00,Wunderground v.1.15,2013-08-03 23:40:00,
2013-08-03 18:45:00,78.0,61.0,30.10,NNW,328,3.0,4.0,56,0.00,,,0.00,Wunderground v.1.15,2013-08-03 23:45:00,
2013-08-03 18:50:00,77.8,60.3,30.10,NNW,336,3.0,3.0,55,0.00,,,0.00,Wunderground v.1.15,2013-08-03 23:50:00,
2013-08-03 18:55:00,77.7,60.8,30.10,NNW,342,2.0,3.0,56,0.00,,,0.00,Wunderground v.1.15,2013-08-03 23:55:00,
2013-08-03 19:00:00,77.9,61.9,30.11,West,281,1.0,1.0,58,0.00,,,0.00,Wunderground v.1.15,2013-08-04 00:00:00,
2013-08-03 19:05:00,77.9,60.9,30.11,NW,322,1.0,1.0,56,0.00,,,0.00,Wunderground v.1.15,2013-08-04 00:05:00,
2013-08-03 19:10:00,77.4,61.5,30.11,NNE,25,1.0,2.0,58,0.00,,,0.00,Wunderground v.1.15,2013-08-04 00:10:00,
2013-08-03 19:15:00,77.4,61.5,30.11,NNW,328,1.0,2.0,58,0.00,,,0.00,Wunderground v.1.15,2013-08-04 00:15:00,
2013-08-03 19:20:00,77.3,61.4,30.10,NNE,15,1.0,1.0,58,0.00,,,0.00,Wunderground v.1.15,2013-08-04 00:20:00,
2013-08-03 19:24:00,77.0,61.1,30.10,NNE,29,2.0,2.0,58,0.00,,,0.00,Wunderground v.1.15,2013-08-04 00:24:00,
2013-08-03 19:30:00,76.4,61.0,30.10,NNE,25,2.0,2.0,59,0.00,,,0.00,Wunderground v.1.15,2013-08-04 00:30:00,
2013-08-03 19:35:00,75.8,61.4,30.10,North,11,1.0,2.0,61,0.00,,,0.00,Wunderground v.1.15,2013-08-04 00:35:00,
2013-08-03 19:40:00,75.2,61.3,30.10,NNE,25,1.0,1.0,62,0.00,,,0.00,Wunderground v.1.15,2013-08-04 00:40:00,
2013-08-03 19:45:00,74.9,61.0,30.10,NNW,336,1.0,1.0,62,0.00,,,0.00,Wunderground v.1.15,2013-08-04 00:45:00,
2013-08-03 19:50:00,74.5,61.1,30.10,NNE,22,1.0,1.0,63,0.00,,,0.00,Wunderground v.1.15,2013-08-04 00:50:00,
2013-08-03 19:55:00,74.1,62.0,30.10,NNE,21,1.0,1.0,66,0.00,,,0.00,Wunderground v.1.15,2013-08-04 00:55:00,
2013-08-03 20:00:00,73.6,61.5,30.10,North,5,0.0,1.0,66,0.00,,,0.00,Wunderground v.1.15,2013-08-04 01:00:00,
2013-08-03 20:10:00,73.1,61.1,30.11,NW,321,0.0,0.0,66,0.00,,,0.00,Wunderground v.1.15,2013-08-04 01:10:00,
2013-08-03 20:15:00,72.9,61.3,30.11,NW,320,0.0,0.0,67,0.00,,,0.00,Wunderground v.1.15,2013-08-04 01:15:00,
2013-08-03 20:20:00,72.5,61.3,30.11,NW,321,0.0,0.0,68,0.00,,,0.00,Wunderground v.1.15,2013-08-04 01:20:00,
2013-08-03 20:25:00,72.2,61.9,30.11,NW,321,0.0,0.0,70,0.00,,,0.00,Wunderground v.1.15,2013-08-04 01:25:00,
2013-08-03 20:30:00,71.8,61.5,30.11,NW,321,0.0,0.0,70,0.00,,,0.00,Wunderground v.1.15,2013-08-04 01:30:00,
2013-08-03 20:35:00,71.5,61.6,30.11,NW,321,0.0,0.0,71,0.00,,,0.00,Wunderground v.1.15,2013-08-04 01:35:00,
2013-08-03 20:40:00,71.2,61.3,30.11,NW,321,0.0,0.0,71,0.00,,,0.00,Wunderground v.1.15,2013-08-04 01:40:00,
2013-08-03 20:45:00,70.9,61.4,30.11,NW,321,0.0,0.0,72,0.00,,,0.00,Wunderground v.1.15,2013-08-04 01:45:00,
2013-08-03 20:50:00,70.7,61.6,30.12,NW,321,0.0,0.0,73,0.00,,,0.00,Wunderground v.1.15,2013-08-04 01:50:00,
2013-08-03 20:55:00,70.3,61.2,30.12,NW,320,0.0,0.0,73,0.00,,,0.00,Wunderground v.1.15,2013-08-04 01:55:00,
2013-08-03 21:00:00,70.1,61.4,30.12,NW,321,0.0,0.0,74,0.00,,,0.00,Wunderground v.1.15,2013-08-04 02:00:00,
2013-08-03 21:10:00,69.8,61.1,30.12,NW,320,0.0,0.0,74,0.00,,,0.00,Wunderground v.1.15,2013-08-04 02:10:00,
2013-08-03 21:14:00,69.6,60.9,30.12,NW,321,0.0,0.0,74,0.00,,,0.00,Wunderground v.1.15,2013-08-04 02:14:00,
2013-08-03 21:20:00,69.2,61.3,30.12,NW,320,0.0,0.0,76,0.00,,,0.00,Wunderground v.1.15,2013-08-04 02:20:00,
2013-08-03 21:25:00,68.9,61.0,30.13,NW,321,0.0,0.0,76,0.00,,,0.00,Wunderground v.1.15,2013-08-04 02:25:00,
2013-08-03 21:30:00,68.6,60.7,30.13,NW,321,0.0,0.0,76,0.00,,,0.00,Wunderground v.1.15,2013-08-04 02:30:00,
2013-08-03 21:35:00,68.5,60.6,30.13,NW,321,0.0,0.0,76,0.00,,,0.00,Wunderground v.1.15,2013-08-04 02:35:00,
2013-08-03 21:40:00,68.4,60.5,30.13,NW,320,0.0,0.0,76,0.00,,,0.00,Wunderground v.1.15,2013-08-04 02:40:00,
2013-08-03 21:45:00,68.3,60.4,30.13,NW,321,0.0,0.0,76,0.00,,,0.00,Wunderground v.1.15,2013-08-04 02:45:00,
2013-08-03 21:50:00,68.3,60.8,30.13,NW,320,0.0,0.0,77,0.00,,,0.00,Wunderground v.1.15,2013-08-04 02:50:00,
2013-08-03 21:54:00,68.3,60.8,30.13,NW,320,0.0,0.0,77,0.00,,,0.00,Wunderground v.1.15,2013-08-04 02:54:00,
2013-08-03 22:00:00,68.2,60.7,30.13,NW,321,0.0,0.0,77,0.00,,,0.00,Wunderground v.1.15,2013-08-04 03:00:00,
2013-08-03 22:10:00,67.9,60.4,30.13,NW,320,0.0,0.0,77,0.00,,,0.00,Wunderground v.1.15,2013-08-04 03:10:00,
2013-08-03 22:15:00,67.9,60.8,30.13,NW,321,0.0,0.0,78,0.00,,,0.00,Wunderground v.1.15,2013-08-04 03:15:00,
2013-08-03 22:20:00,67.9,60.8,30.13,NW,321,0.0,0.0,78,0.00,,,0.00,Wunderground v.1.15,2013-08-04 03:20:00,
2013-08-03 22:25:00,68.0,60.9,30.13,NW,321,0.0,0.0,78,0.00,,,0.00,Wunderground v.1.15,2013-08-04 03:25:00,
2013-08-03 22:30:00,67.9,60.4,30.14,NW,321,0.0,0.0,77,0.00,,,0.00,Wunderground v.1.15,2013-08-04 03:30:00,
2013-08-03 22:35:00,67.8,60.7,30.14,NW,321,0.0,0.0,78,0.00,,,0.00,Wunderground v.1.15,2013-08-04 03:35:00,
2013-08-03 22:40:00,67.7,60.6,30.14,NW,321,0.0,0.0,78,0.00,,,0.00,Wunderground v.1.15,2013-08-04 03:40:00,
2013-08-03 22:45:00,67.4,60.3,30.14,NW,320,0.0,0.0,78,0.00,,,0.00,Wunderground v.1.15,2013-08-04 03:45:00,
2013-08-03 22:49:00,67.4,60.3,30.14,NW,321,0.0,0.0,78,0.00,,,0.00,Wunderground v.1.15,2013-08-04 03:49:00,
2013-08-03 22:55:00,67.2,60.5,30.14,NW,321,0.0,0.0,79,0.00,,,0.00,Wunderground v.1.15,2013-08-04 03:55:00,
2013-08-03 23:00:00,67.2,60.1,30.14,NW,321,0.0,0.0,78,0.00,,,0.00,Wunderground v.1.15,2013-08-04 04:00:00,
2013-08-03 23:04:00,67.2,60.1,30.14,NW,321,0.0,0.0,78,0.00,,,0.00,Wunderground v.1.15,2013-08-04 04:04:00,
2013-08-03 23:10:00,67.1,60.7,30.14,NW,321,0.0,0.0,80,0.00,,,0.00,Wunderground v.1.15,2013-08-04 04:10:00,
2013-08-03 23:15:00,66.8,60.4,30.14,NW,321,0.0,0.0,80,0.00,,,0.00,Wunderground v.1.15,2013-08-04 04:15:00,
2013-08-03 23:20:00,66.6,60.2,30.15,NW,321,0.0,0.0,80,0.00,,,0.00,Wunderground v.1.15,2013-08-04 04:20:00,
2013-08-03 23:25:00,66.6,60.2,30.15,NW,321,0.0,0.0,80,0.00,,,0.00,Wunderground v.1.15,2013-08-04 04:25:00,
2013-08-03 23:30:00,66.7,60.0,30.15,NW,321,0.0,0.0,79,0.00,,,0.00,Wunderground v.1.15,2013-08-04 04:30:00,
2013-08-03 23:35:00,66.7,60.0,30.15,NW,320,0.0,0.0,79,0.00,,,0.00,Wunderground v.1.15,2013-08-04 04:35:00,
2013-08-03 23:40:00,66.7,60.0,30.15,NW,320,0.0,0.0,79,0.00,,,0.00,Wunderground v.1.15,2013-08-04 04:40:00,
2013-08-03 23:45:00,66.6,60.2,30.15,NW,320,0.0,0.0,80,0.00,,,0.00,Wunderground v.1.15,2013-08-04 04:45:00,
2013-08-03 23:49:00,66.6,60.2,30.15,NW,320,0.0,0.0,80,0.00,,,0.00,Wunderground v.1.15,2013-08-04 04:49:00,
2013-08-03 23:55:00,66.5,60.1,30.15,NW,321,0.0,0.0,80,0.00,,,0.00,Wunderground v.1.15,2013-08-04 04:55:00,